Time;durP1;ratioP1;P1;durP2;ratioP2;P2;SDS_P1;SDS_P2;PMS_P1;PMS_P2;Temp;Humidity;BMP_temperature;BMP_pressure;BME280_temperature;BME280_humidity;BME280_pressure;Samples;Min_cycle;Max_cycle;Signal;HPM_P1;HPM_P2
2022/08/23 00:01:47;;;;;;;5.55;4.30;;;;;;;21.15;100.00;98627.47;4379825;32;20878;-71
2022/08/23 00:04:32;;;;;;;9.30;5.25;;;;;;;21.13;100.00;98628.94;4377999;32;20039;-71
2022/08/23 00:07:00;;;;;;;9.85;5.10;;;;;;;20.89;100.00;98592.03;4374316;32;20056;-72
2022/08/23 00:09:27;;;;;;;14.65;5.55;;;;;;;20.80;100.00;98594.00;4378696;32;20081;-69
2022/08/23 00:12:04;;;;;;;9.73;4.93;;;;;;;20.92;100.00;98598.75;4375941;32;20054;-71
2022/08/23 00:14:34;;;;;;;15.60;5.22;;;;;;;21.09;100.00;98617.03;4377376;32;20447;-70
2022/08/23 00:17:00;;;;;;;5.15;4.65;;;;;;;21.11;100.00;98626.53;4376541;32;20492;-71
2022/08/23 00:19:27;;;;;;;12.05;4.97;;;;;;;21.02;100.00;98639.44;4376485;32;20043;-71
2022/08/23 00:21:54;;;;;;;7.60;5.25;;;;;;;21.01;100.00;98638.66;4377610;32;20057;-71
2022/08/23 00:24:23;;;;;;;8.15;5.53;;;;;;;20.78;100.00;98602.53;4338771;33;20167;-71
2022/08/23 00:27:15;;;;;;;6.75;5.22;;;;;;;21.09;100.00;98638.94;4309676;33;20054;-73
2022/08/23 05:01:26;;;;;;;13.52;9.68;;;;;;;20.56;100.00;98699.25;4392161;32;20080;-74
2022/08/23 05:03:54;;;;;;;14.55;10.65;;;;;;;20.37;100.00;98707.00;4391192;32;20076;-73
2022/08/23 05:06:20;;;;;;;17.27;11.05;;;;;;;20.16;100.00;98663.91;4395922;32;20064;-72
2022/08/23 05:08:47;;;;;;;15.07;10.57;;;;;;;20.48;100.00;98714.53;4395210;32;20068;-74
2022/08/23 05:11:14;;;;;;;36.30;11.27;;;;;;;20.54;100.00;98700.72;4398884;32;20058;-71
2022/08/23 05:13:41;;;;;;;38.42;12.60;;;;;;;20.55;100.00;98708.59;4402595;32;20060;-73
2022/08/23 05:16:09;;;;;;;22.62;12.10;;;;;;;20.48;100.00;98713.75;4399982;32;20043;-71
2022/08/23 05:18:36;;;;;;;38.22;13.35;;;;;;;20.51;100.00;98715.81;4398964;32;20113;-78
2022/08/23 05:21:02;;;;;;;25.00;12.85;;;;;;;20.46;100.00;98694.12;4399499;32;20086;-72
2022/08/23 05:23:29;;;;;;;27.87;12.55;;;;;;;20.45;100.00;98676.09;4401170;32;20078;-72
2022/08/23 05:25:57;;;;;;;19.17;11.18;;;;;;;20.46;100.00;98705.06;4401763;32;20043;-71
2022/08/23 05:28:30;;;;;;;22.42;12.40;;;;;;;20.53;100.00;98710.84;4398638;32;20505;-75
2022/08/23 05:31:07;;;;;;;21.27;12.63;;;;;;;20.50;100.00;98681.41;4391401;32;20035;-71
2022/08/23 05:33:35;;;;;;;21.73;13.95;;;;;;;20.82;100.00;98717.56;4400720;32;20061;-71
2022/08/23 05:36:04;;;;;;;17.02;11.82;;;;;;;20.75;100.00;98714.53;4400295;32;20086;-73
2022/08/23 05:38:30;;;;;;;20.33;11.50;;;;;;;20.32;100.00;98659.53;4396635;32;20092;-73
2022/08/23 05:40:57;;;;;;;21.55;13.25;;;;;;;20.49;100.00;98677.06;4404007;32;20408;-71
2022/08/23 05:43:24;;;;;;;21.80;11.82;;;;;;;20.71;100.00;98702.63;4392649;32;20416;-71
2022/08/23 05:46:14;;;;;;;21.80;12.57;;;;;;;20.86;100.00;98713.06;4401890;32;20073;-72
2022/08/23 05:48:48;;;;;;;22.87;12.88;;;;;;;20.97;100.00;98719.78;4401270;32;20043;-72
2022/08/23 05:51:17;;;;;;;20.73;11.50;;;;;;;21.13;100.00;98716.53;4401013;32;20065;-73
2022/08/23 05:53:46;;;;;;;24.85;11.80;;;;;;;21.18;100.00;98708.13;4399571;32;20054;-85
2022/08/23 05:56:24;;;;;;;16.50;10.90;;;;;;;20.88;100.00;98667.03;4400534;32;20076;-72
2022/08/23 05:58:54;;;;;;;17.33;12.10;;;;;;;20.92;100.00;98706.28;4401298;32;20398;-71
2022/08/23 06:01:21;;;;;;;130.70;12.45;;;;;;;20.88;100.00;98738.16;4384361;32;20069;-73
2022/08/23 06:03:49;;;;;;;13.13;7.05;;;;;;;21.04;100.00;98731.06;4394214;32;20140;-75
2022/08/23 06:06:16;;;;;;;11.65;7.87;;;;;;;21.22;100.00;98714.53;4396849;32;20136;-71
2022/08/23 06:08:47;;;;;;;15.60;8.68;;;;;;;21.47;100.00;98717.50;4405511;32;20116;-72
2022/08/23 06:11:21;;;;;;;12.32;8.85;;;;;;;21.52;100.00;98720.09;4385514;32;20084;-75
2022/08/23 06:13:52;;;;;;;15.35;9.43;;;;;;;21.58;100.00;98724.25;4398639;32;20050;-72
2022/08/23 06:16:22;;;;;;;16.08;9.93;;;;;;;21.61;100.00;98720.84;4400330;32;20068;-71
2022/08/23 06:18:50;;;;;;;16.35;10.20;;;;;;;21.56;100.00;98674.50;4400381;32;20065;-77
2022/08/23 06:21:19;;;;;;;18.35;11.50;;;;;;;21.99;100.00;98709.03;4402096;32;20077;-72
2022/08/23 06:23:48;;;;;;;16.80;9.95;;;;;;;21.93;100.00;98704.87;4372773;32;20046;-71
2022/08/23 06:26:30;;;;;;;15.73;10.63;;;;;;;21.69;100.00;98683.59;4369221;32;20498;-72
2022/08/23 06:29:01;;;;;;;25.80;11.18;;;;;;;21.90;100.00;98705.53;4355104;32;20057;-72
2022/08/23 06:31:45;;;;;;;20.00;12.02;;;;;;;21.77;100.00;98686.25;4356753;32;20121;-73
2022/08/23 06:34:19;;;;;;;18.00;11.23;;;;;;;22.02;100.00;98713.84;4354842;32;20101;-73
2022/08/23 06:36:52;;;;;;;15.65;11.45;;;;;;;22.13;100.00;98731.50;4357155;32;20058;-72
2022/08/23 06:39:21;;;;;;;17.62;11.32;;;;;;;22.24;100.00;98736.56;4357664;32;20054;-74
2022/08/23 06:41:47;;;;;;;19.73;11.63;;;;;;;22.34;100.00;98736.22;4340961;32;20077;-73
2022/08/23 06:44:22;;;;;;;19.05;10.70;;;;;;;22.43;100.00;98739.69;4313658;33;20095;-76
2022/08/23 06:46:50;;;;;;;21.70;11.95;;;;;;;22.45;100.00;98748.38;4311752;33;20100;-79
2022/08/23 06:49:17;;;;;;;15.98;11.70;;;;;;;22.48;100.00;98747.69;4309249;33;20059;-73
2022/08/23 06:51:52;;;;;;;20.02;11.73;;;;;;;22.24;100.00;98701.75;4312692;33;20070;-74
2022/08/23 06:54:22;;;;;;;16.00;10.50;;;;;;;22.23;100.00;98713.03;4309866;33;20057;-80
2022/08/23 06:56:50;;;;;;;17.08;9.30;;;;;;;22.42;100.00;98749.03;4303923;33;20126;-73
2022/08/23 06:59:17;;;;;;;19.12;10.07;;;;;;;22.09;100.00;98714.09;4283954;33;20434;-73
2022/08/23 07:01:52;;;;;;;16.35;9.20;;;;;;;22.24;100.00;98750.28;4291805;33;20036;-74
2022/08/23 07:04:27;;;;;;;17.30;9.40;;;;;;;22.18;100.00;98732.41;4289876;33;20470;-73
2022/08/23 07:06:56;;;;;;;18.45;10.18;;;;;;;21.99;100.00;98750.13;4292220;33;20119;-74
2022/08/23 07:09:23;;;;;;;14.70;10.23;;;;;;;22.06;100.00;98758.63;4291530;33;21390;-73
2022/08/23 07:11:50;;;;;;;15.45;11.70;;;;;;;21.87;100.00;98728.13;4300808;33;20090;-82
2022/08/23 07:14:19;;;;;;;21.42;11.95;;;;;;;21.62;100.00;98686.88;4322228;33;20036;-73
2022/08/23 07:16:48;;;;;;;20.55;12.88;;;;;;;21.89;100.00;98732.16;4343075;32;20044;-73
2022/08/23 07:19:18;;;;;;;24.63;12.30;;;;;;;21.94;100.00;98729.19;4341623;32;20435;-72
2022/08/23 07:21:44;;;;;;;20.52;12.85;;;;;;;21.97;100.00;98738.72;4345517;33;20062;-74
2022/08/23 07:24:12;;;;;;;24.58;13.18;;;;;;;22.02;100.00;98765.91;4304217;33;20058;-72
2022/08/23 07:26:40;;;;;;;19.30;13.43;;;;;;;21.95;100.00;98755.50;4278459;33;20033;-72
2022/08/23 07:29:10;;;;;;;22.17;14.15;;;;;;;22.01;100.00;98771.72;4274569;33;20063;-73
2022/08/23 07:31:42;;;;;;;27.73;13.35;;;;;;;21.99;100.00;98779.50;4275449;33;20052;-80
2022/08/23 07:34:09;;;;;;;22.85;14.40;;;;;;;21.84;100.00;98747.97;4280425;33;20084;-73
2022/08/23 07:36:37;;;;;;;19.12;12.93;;;;;;;22.25;100.00;98790.28;4311426;33;20055;-72
2022/08/23 07:39:05;;;;;;;24.02;13.80;;;;;;;22.36;100.00;98782.50;4309254;33;20040;-73
2022/08/23 07:41:34;;;;;;;22.27;14.48;;;;;;;22.29;100.00;98783.00;4304067;33;20059;-79
2022/08/23 07:44:08;;;;;;;18.27;14.43;;;;;;;22.43;100.00;98780.84;4292502;33;20061;-72
2022/08/23 07:46:39;;;;;;;23.08;14.40;;;;;;;22.35;100.00;98765.22;4293241;33;20134;-71
2022/08/23 07:49:07;;;;;;;20.50;13.62;;;;;;;22.58;100.00;98778.62;4293870;33;20034;-73
2022/08/23 07:51:35;;;;;;;22.85;13.68;;;;;;;22.39;100.00;98749.72;4301067;33;20079;-69
2022/08/23 07:54:04;;;;;;;20.35;14.30;;;;;;;22.64;100.00;98771.75;4294109;33;20049;-71
2022/08/23 07:56:34;;;;;;;28.87;15.18;;;;;;;22.68;100.00;98789.16;4322178;33;20076;-71
2022/08/23 07:59:04;;;;;;;24.27;15.10;;;;;;;22.61;100.00;98788.91;4317925;33;20107;-75
2022/08/23 08:01:30;;;;;;;25.15;14.40;;;;;;;22.78;100.00;98744.81;4328668;33;20167;-71
2022/08/23 08:03:59;;;;;;;29.10;14.50;;;;;;;22.88;100.00;98786.72;4328781;33;20049;-72
2022/08/23 08:06:30;;;;;;;19.20;13.77;;;;;;;23.06;100.00;98788.16;4324755;33;20037;-72
2022/08/23 08:08:58;;;;;;;24.95;13.65;;;;;;;22.97;100.00;98790.97;4329850;33;20377;-75
2022/08/23 08:11:26;;;;;;;18.70;13.18;;;;;;;23.26;100.00;98780.22;4322056;33;20044;-72
2022/08/23 08:13:54;;;;;;;19.67;12.65;;;;;;;23.15;100.00;98739.50;4321718;33;20227;-70
2022/08/23 08:16:24;;;;;;;20.10;13.68;;;;;;;23.18;100.00;98747.03;4342186;32;20157;-73
2022/08/23 08:18:52;;;;;;;28.60;13.05;;;;;;;23.17;100.00;98750.94;4344625;32;20163;-72
2022/08/23 08:21:27;;;;;;;14.93;11.00;;;;;;;23.35;100.00;98778.19;4344361;32;20056;-71
2022/08/23 08:23:56;;;;;;;19.85;11.68;;;;;;;23.13;100.00;98791.19;4345839;32;20088;-71
2022/08/23 08:26:26;;;;;;;21.02;12.45;;;;;;;23.14;100.00;98759.06;4347108;33;20081;-71
2022/08/23 08:28:55;;;;;;;22.67;10.35;;;;;;;23.68;100.00;98804.81;4340926;33;20080;-72
2022/08/23 08:31:24;;;;;;;17.45;10.00;;;;;;;23.67;100.00;98790.25;4366669;32;20519;-71
2022/08/23 08:33:51;;;;;;;24.30;11.27;;;;;;;23.90;100.00;98804.37;4368804;32;20027;-72
2022/08/23 08:36:46;;;;;;;16.42;11.55;;;;;;;24.09;100.00;98806.53;4368419;32;20049;-71
2022/08/23 08:39:17;;;;;;;20.73;10.13;;;;;;;24.27;100.00;98795.28;4367207;32;20039;-71
2022/08/23 08:42:08;;;;;;;15.48;9.68;;;;;;;24.20;100.00;98809.59;4367956;32;20090;-72
2022/08/23 08:44:41;;;;;;;14.68;9.52;;;;;;;24.18;100.00;98809.16;4381362;32;20098;-72
2022/08/23 08:47:38;;;;;;;20.95;9.20;;;;;;;24.46;100.00;98797.41;4388039;32;20039;-72
2022/08/23 08:50:04;;;;;;;15.25;8.25;;;;;;;24.64;100.00;98798.75;4400627;32;20058;-72
2022/08/23 08:52:38;;;;;;;16.08;7.43;;;;;;;24.58;100.00;98808.41;4398807;32;20429;-71
2022/08/23 08:55:24;;;;;;;14.87;7.68;;;;;;;24.13;100.00;98768.13;4395103;32;20055;-72
2022/08/23 08:57:53;;;;;;;13.32;7.87;;;;;;;24.39;100.00;98814.50;4398072;32;20975;-72
2022/08/23 09:00:24;;;;;;;15.73;9.18;;;;;;;24.44;100.00;98795.00;4399901;32;20443;-72
2022/08/23 09:02:53;;;;;;;11.43;7.20;;;;;;;24.46;100.00;98806.47;4368681;32;20057;-70
2022/08/23 09:05:35;;;;;;;9.23;7.97;;;;;;;24.43;100.00;98798.13;4366999;32;20073;-71
2022/08/23 09:08:22;;;;;;;14.68;8.25;;;;;;;24.41;100.00;98794.88;4364066;32;20395;-71
2022/08/23 09:10:59;;;;;;;17.48;7.50;;;;;;;24.54;100.00;98813.00;4365880;32;20494;-71
2022/08/23 09:13:43;;;;;;;13.48;7.00;;;;;;;24.62;100.00;98812.06;4366482;32;20053;-71
2022/08/23 09:16:21;;;;;;;12.02;7.82;;;;;;;24.60;100.00;98778.59;4364584;32;20088;-72
2022/08/23 09:18:47;;;;;;;17.70;7.65;;;;;;;24.78;100.00;98781.03;4351551;32;20113;-71
2022/08/23 09:21:16;;;;;;;16.73;7.05;;;;;;;25.06;100.00;98818.78;4351330;32;20222;-70
2022/08/23 09:23:45;;;;;;;14.43;6.80;;;;;;;25.14;100.00;98815.06;4351930;32;20136;-70
2022/08/23 09:26:22;;;;;;;8.57;5.73;;;;;;;25.07;100.00;98810.16;4350732;32;20127;-70
2022/08/23 09:28:59;;;;;;;7.85;5.30;;;;;;;24.92;100.00;98806.22;4351645;32;20070;-71
2022/08/23 09:31:46;;;;;;;6.03;5.43;;;;;;;24.90;100.00;98811.28;4351476;32;20111;-70
2022/08/23 09:34:41;;;;;;;12.05;5.68;;;;;;;24.97;100.00;98816.16;4359851;32;20035;-71
2022/08/23 09:37:21;;;;;;;9.40;5.97;;;;;;;24.97;100.00;98811.47;4363791;32;20061;-71
2022/08/23 09:40:11;;;;;;;8.75;5.93;;;;;;;24.38;100.00;98724.03;4366119;32;20077;-71
2022/08/23 09:42:39;;;;;;;9.93;5.87;;;;;;;25.15;100.00;98811.97;4366517;32;20128;-70
2022/08/23 09:45:28;;;;;;;7.05;5.75;;;;;;;24.89;100.00;98773.87;4363389;32;20031;-70
2022/08/23 09:47:54;;;;;;;8.38;5.68;;;;;;;25.19;100.00;98812.03;4366987;32;20073;-71
2022/08/23 09:50:21;;;;;;;16.80;5.60;;;;;;;24.95;100.00;98775.22;4384626;32;20371;-70
2022/08/23 09:52:49;;;;;;;14.13;5.82;;;;;;;24.99;100.00;98775.31;4397340;32;20091;-70
2022/08/23 09:55:30;;;;;;;11.63;5.45;;;;;;;25.32;100.00;98805.34;4399508;32;20077;-70
2022/08/23 09:58:00;;;;;;;7.77;5.50;;;;;;;25.65;100.00;98806.97;4398708;32;20536;-71
2022/08/23 10:00:32;;;;;;;8.88;5.35;;;;;;;25.69;100.00;98780.28;4397898;32;20098;-72
2022/08/23 10:03:26;;;;;;;19.50;5.28;;;;;;;25.74;100.00;98774.50;4399690;32;20713;-72
2022/08/23 10:05:59;;;;;;;10.50;5.95;;;;;;;26.51;100.00;98812.91;4398456;32;20098;-84
2022/08/23 10:08:32;;;;;;;13.10;5.40;;;;;;;26.42;100.00;98794.59;4390722;32;20059;-74
2022/08/23 10:11:22;;;;;;;16.98;6.40;;;;;;;26.60;100.00;98813.50;4398311;32;20046;-75
2022/08/23 10:13:50;;;;;;;19.25;5.50;;;;;;;25.98;100.00;98792.03;4398779;32;20098;-72
2022/08/23 10:16:31;;;;;;;13.40;6.72;;;;;;;25.63;100.00;98836.84;4377371;32;20047;-73
2022/08/23 10:18:58;;;;;;;12.20;5.50;;;;;;;25.41;100.00;98837.47;4372082;32;20192;-75
2022/08/23 10:21:46;;;;;;;18.45;6.68;;;;;;;25.02;100.00;98808.47;4371184;32;20043;-84
2022/08/23 10:24:34;;;;;;;14.48;6.60;;;;;;;25.30;100.00;98835.19;4372259;32;20132;-76
2022/08/23 10:31:14;;;;;;;20.80;7.57;;;;;;;25.02;100.00;98858.03;4335743;32;20063;-70
2022/08/23 10:34:05;;;;;;;12.48;7.12;;;;;;;24.93;100.00;98860.13;4370463;32;20039;-75
2022/08/23 10:36:52;;;;;;;14.10;6.28;;;;;;;25.06;100.00;98879.38;4369974;32;20035;-72
2022/08/23 10:39:30;;;;;;;10.55;6.95;;;;;;;24.97;100.00;98872.06;4367322;32;20057;-72
2022/08/23 10:41:57;;;;;;;12.70;7.45;;;;;;;24.94;100.00;98900.31;4372947;32;20042;-72
2022/08/23 10:44:39;;;;;;;15.48;8.77;;;;;;;24.66;100.00;98895.53;4375094;32;20074;-76
2022/08/23 10:47:31;;;;;;;11.35;6.87;;;;;;;24.57;100.00;98897.63;4381703;32;20097;-72
2022/08/23 10:50:04;;;;;;;10.95;7.43;;;;;;;24.60;100.00;98874.94;4370087;32;20035;-72
2022/08/23 10:52:48;;;;;;;11.30;7.50;;;;;;;24.44;100.00;98879.50;4369493;32;20035;-82
2022/08/23 10:58:22;;;;;;;15.65;7.70;;;;;;;24.13;100.00;98872.66;4369170;32;20120;-73
2022/08/23 11:00:51;;;;;;;18.95;8.30;;;;;;;24.00;100.00;98871.06;4373707;32;20436;-71
2022/08/23 11:03:30;;;;;;;15.05;9.07;;;;;;;24.14;100.00;98874.25;4371232;32;20056;-71
2022/08/23 11:06:40;;;;;;;18.83;7.65;;;;;;;24.21;100.00;98874.47;4366812;32;20069;-72
2022/08/23 11:09:16;;;;;;;13.35;7.15;;;;;;;24.03;100.00;98878.59;4366250;32;20069;-77
2022/08/23 11:12:24;;;;;;;11.57;6.80;;;;;;;23.72;100.00;98841.44;4373565;32;20072;-71
2022/08/23 11:15:17;;;;;;;11.73;6.62;;;;;;;24.01;100.00;98867.13;4374863;32;20043;-73
2022/08/23 11:17:50;;;;;;;14.35;8.05;;;;;;;24.03;100.00;98862.91;4371880;32;20071;-72
2022/08/23 11:20:50;;;;;;;16.98;7.72;;;;;;;24.06;100.00;98861.41;4376281;32;20042;-80
2022/08/23 11:23:47;;;;;;;16.23;7.07;;;;;;;24.11;100.00;98863.94;4392588;32;20034;-72
2022/08/23 11:26:30;;;;;;;17.50;7.30;;;;;;;24.11;100.00;98874.94;4394065;32;20058;-72
2022/08/23 11:29:06;;;;;;;14.87;8.15;;;;;;;23.86;100.00;98841.94;4396453;32;20076;-76
2022/08/23 11:32:04;;;;;;;11.07;8.25;;;;;;;23.72;100.00;98838.69;4396311;32;20445;-74
2022/08/23 11:34:42;;;;;;;38.15;17.08;;;;;;;23.80;100.00;98864.47;4393932;32;20047;-86
2022/08/23 11:37:18;;;;;;;15.98;7.87;;;;;;;23.49;100.00;98832.81;4366659;32;20421;-72
2022/08/23 11:39:57;;;;;;;18.08;8.15;;;;;;;23.44;100.00;98835.75;4365862;32;20075;-72
2022/08/23 11:42:38;;;;;;;13.52;7.70;;;;;;;23.42;100.00;98876.53;4363992;32;20052;-72
2022/08/23 11:45:20;;;;;;;;;;;;;;;23.28;100.00;98865.81;4363992;32;20111;-72
2022/08/23 11:48:02;;;;;;;15.18;7.85;;;;;;;23.07;100.00;98872.16;4363496;32;20028;-78
2022/08/23 11:50:49;;;;;;;15.45;9.32;;;;;;;22.93;100.00;98827.69;4367013;32;20170;-72
2022/08/23 11:53:31;;;;;;;15.60;7.47;;;;;;;23.14;100.00;98803.78;4360362;32;20918;-84
2022/08/23 11:56:18;;;;;;;13.73;6.28;;;;;;;23.59;100.00;98843.37;4365878;32;20053;-77
2022/08/23 11:59:06;;;;;;;12.32;6.32;;;;;;;23.73;100.00;98799.06;4360348;32;20246;-74
2022/08/23 12:01:35;;;;;;;10.60;5.20;;;;;;;24.41;100.00;98830.66;4360173;32;20043;-74
2022/08/23 12:04:10;;;;;;;9.48;5.32;;;;;;;24.38;100.00;98801.91;4356764;32;20074;-73
2022/08/23 12:06:45;;;;;;;10.75;4.85;;;;;;;24.66;100.00;98837.72;4358164;32;20421;-74
2022/08/23 12:09:24;;;;;;;17.00;5.57;;;;;;;24.90;100.00;98838.00;4365228;32;20085;-73
2022/08/23 12:11:56;;;;;;;5.87;4.90;;;;;;;25.13;100.00;98847.31;4368563;32;20448;-74
2022/08/23 12:14:44;;;;;;;5.62;3.67;;;;;;;25.34;100.00;98846.34;4378108;32;20031;-73
2022/08/23 12:17:17;;;;;;;11.85;5.97;;;;;;;25.46;100.00;98842.69;4383556;32;20055;-73
2022/08/23 12:20:09;;;;;;;14.23;3.90;;;;;;;25.61;100.00;98852.13;4381514;32;20342;-88
2022/08/23 12:22:54;;;;;;;7.62;4.00;;;;;;;25.69;100.00;98818.88;4370143;32;20043;-73
2022/08/23 12:25:22;;;;;;;7.10;3.53;;;;;;;26.32;100.00;98850.34;4359669;32;20040;-92
2022/08/23 12:27:55;;;;;;;12.40;4.78;;;;;;;26.28;100.00;98794.28;4361108;32;20083;-73
2022/08/23 12:30:28;;;;;;;6.00;4.07;;;;;;;26.76;100.00;98846.59;4365401;32;20325;-74
2022/08/23 12:33:20;;;;;;;11.73;4.10;;;;;;;27.44;100.00;98858.97;4370252;32;20043;-72
2022/08/23 12:35:58;;;;;;;6.55;3.72;;;;;;;27.77;100.00;98852.06;4372669;32;20052;-73
2022/08/23 12:38:52;;;;;;;9.45;3.50;;;;;;;28.04;100.00;98830.78;4369876;32;20091;-73
2022/08/23 12:41:24;;;;;;;10.82;3.90;;;;;;;28.31;100.00;98816.16;4369427;32;20035;-72
2022/08/23 12:44:08;;;;;;;11.23;3.30;;;;;;;28.58;100.00;98837.09;4370051;32;20069;-72
2022/08/23 12:46:39;;;;;;;7.22;3.55;;;;;;;28.67;100.00;98813.88;4368054;32;20766;-72
2022/08/23 12:49:08;;;;;;;9.43;4.03;;;;;;;28.92;100.00;98823.28;4369431;32;20055;-72
2022/08/23 12:51:40;;;;;;;19.42;3.95;;;;;;;29.04;100.00;98797.28;4359032;32;20497;-72
2022/08/23 12:54:20;;;;;;;11.00;2.83;;;;;;;28.42;100.00;98833.69;4372480;32;20185;-88
2022/08/23 12:56:50;;;;;;;11.10;3.80;;;;;;;28.36;100.00;98829.66;4384741;32;20061;-72
2022/08/23 12:59:31;;;;;;;3.28;2.50;;;;;;;28.32;100.00;98834.34;4383093;32;20061;-85
2022/08/23 13:02:01;;;;;;;8.45;3.17;;;;;;;28.34;100.00;98801.56;4383407;32;20057;-72
2022/08/23 13:04:31;;;;;;;10.02;2.83;;;;;;;28.38;100.00;98832.84;4385736;32;20043;-73
2022/08/23 13:07:03;;;;;;;6.45;2.60;;;;;;;27.99;100.00;98817.25;4382091;32;20170;-71
2022/08/23 13:09:36;;;;;;;3.65;2.65;;;;;;;27.75;100.00;98835.03;4384101;32;20043;-87
2022/08/23 13:12:05;;;;;;;7.68;2.87;;;;;;;27.77;100.00;98832.69;4354441;32;20044;-73
2022/08/23 13:14:45;;;;;;;9.02;2.75;;;;;;;26.86;100.00;98787.22;4353432;32;20038;-72
2022/08/23 13:17:17;;;;;;;10.63;4.35;;;;;;;26.86;100.00;98820.34;4322524;33;20181;-80
2022/08/23 13:19:46;;;;;;;8.90;2.90;;;;;;;26.95;100.00;98818.13;4320692;33;20091;-72
2022/08/23 13:22:18;;;;;;;6.68;3.20;;;;;;;26.54;100.00;98809.41;4320076;33;20045;-73
2022/08/23 13:25:08;;;;;;;9.70;2.90;;;;;;;26.24;100.00;98810.72;4324455;33;20098;-79
2022/08/23 13:27:53;;;;;;;6.60;2.90;;;;;;;25.93;100.00;98806.84;4294654;33;20076;-72
2022/08/23 13:30:28;;;;;;;6.18;2.67;;;;;;;26.04;100.00;98779.56;4314956;33;20041;-78
2022/08/23 13:33:07;;;;;;;14.00;3.45;;;;;;;26.35;100.00;98775.09;4308150;33;20076;-81
2022/08/23 13:35:44;;;;;;;7.95;2.33;;;;;;;26.43;100.00;98763.03;4324400;33;20036;-72
2022/08/23 13:38:16;;;;;;;8.40;3.00;;;;;;;26.87;100.00;98791.53;4324894;33;20040;-72
2022/08/23 13:40:55;;;;;;;10.90;3.75;;;;;;;27.05;100.00;98787.19;4317599;33;20055;-71
2022/08/23 13:43:33;;;;;;;6.15;3.33;;;;;;;27.01;100.00;98747.62;4326704;32;20036;-71
2022/08/23 13:46:10;;;;;;;10.70;3.70;;;;;;;27.11;100.00;98740.69;4341943;32;20062;-72
2022/08/23 13:48:46;;;;;;;12.65;3.67;;;;;;;27.14;100.00;98732.47;4361944;32;20058;-72
2022/08/23 13:51:16;;;;;;;15.40;3.35;;;;;;;27.00;100.00;98729.47;4381262;32;20426;-71
2022/08/23 13:53:43;;;;;;;14.35;2.97;;;;;;;27.41;100.00;98760.19;4379530;32;20040;-73
2022/08/23 13:56:09;;;;;;;10.63;3.40;;;;;;;27.21;100.00;98733.78;4376672;32;20079;-75
2022/08/23 13:58:36;;;;;;;11.43;3.47;;;;;;;27.25;100.00;98745.66;4389186;32;20058;-72
2022/08/23 14:01:08;;;;;;;9.60;3.80;;;;;;;27.49;100.00;98773.00;4401506;32;20038;-72
2022/08/23 14:03:34;;;;;;;12.82;3.70;;;;;;;27.43;100.00;98791.03;4400085;32;20051;-73
2022/08/23 14:06:01;;;;;;;14.38;3.53;;;;;;;27.47;100.00;98802.94;4396962;32;20396;-85
2022/08/23 14:08:27;;;;;;;13.93;3.03;;;;;;;27.33;100.00;98786.12;4401081;32;20311;-72
2022/08/23 14:10:53;;;;;;;9.82;3.17;;;;;;;27.48;100.00;98836.94;4401257;32;20179;-72
2022/08/23 14:13:23;;;;;;;11.05;2.90;;;;;;;27.16;100.00;98843.44;4399800;32;20034;-74
2022/08/23 14:15:49;;;;;;;7.00;3.17;;;;;;;26.99;100.00;98850.19;4401166;32;20071;-73
2022/08/23 14:18:16;;;;;;;10.68;2.83;;;;;;;26.78;100.00;98847.81;4398816;32;20085;-90
2022/08/23 14:20:43;;;;;;;8.80;2.37;;;;;;;26.82;100.00;98859.75;4396025;32;20050;-72
2022/08/23 14:23:09;;;;;;;11.70;2.55;;;;;;;26.65;100.00;98857.41;4401350;32;20051;-71
2022/08/23 14:25:36;;;;;;;8.40;2.83;;;;;;;26.22;100.00;98867.44;4399656;32;20082;-73
2022/08/23 14:28:02;;;;;;;3.35;2.55;;;;;;;26.24;100.00;98860.41;4397325;32;20060;-73
2022/08/23 14:30:34;;;;;;;6.22;2.80;;;;;;;26.31;100.00;98857.03;4398476;32;20043;-87
2022/08/23 14:33:02;;;;;;;9.48;2.58;;;;;;;26.34;100.00;98848.00;4376043;32;20277;-72
2022/08/23 14:35:29;;;;;;;12.52;2.58;;;;;;;26.06;100.00;98851.72;4376869;32;20050;-79
2022/08/23 14:37:56;;;;;;;4.07;2.22;;;;;;;25.64;100.00;98849.47;4372096;32;20074;-72
2022/08/23 14:40:22;;;;;;;12.95;2.72;;;;;;;25.85;100.00;98859.44;4373833;32;20038;-89
2022/08/23 14:42:49;;;;;;;5.65;2.20;;;;;;;25.85;100.00;98848.41;4370280;32;20073;-72
2022/08/23 14:45:16;;;;;;;12.85;2.62;;;;;;;25.89;100.00;98838.25;4369882;32;20079;-72
2022/08/23 14:47:43;;;;;;;7.82;3.08;;;;;;;25.96;100.00;98843.97;4369864;32;20039;-72
2022/08/23 14:50:12;;;;;;;4.78;2.60;;;;;;;25.66;100.00;98814.09;4372546;32;20366;-82
2022/08/23 14:52:42;;;;;;;16.17;3.08;;;;;;;25.63;100.00;98831.34;4369850;32;20035;-72
2022/08/23 14:55:10;;;;;;;9.85;3.00;;;;;;;25.69;100.00;98834.63;4359592;32;20084;-75
2022/08/23 14:57:37;;;;;;;24.12;2.92;;;;;;;25.79;100.00;98816.75;4371567;32;20058;-74
2022/08/23 15:00:07;;;;;;;5.10;2.62;;;;;;;25.81;100.00;98815.22;4380251;32;20024;-73
2022/08/23 15:02:35;;;;;;;7.57;3.03;;;;;;;25.87;100.00;98818.53;4371441;32;20040;-73
2022/08/23 15:05:02;;;;;;;9.13;2.70;;;;;;;25.89;100.00;98777.59;4376722;32;20051;-72
2022/08/23 15:07:28;;;;;;;11.40;3.10;;;;;;;26.05;100.00;98786.66;4379075;32;20400;-73
2022/08/23 15:09:57;;;;;;;6.62;2.20;;;;;;;26.34;100.00;98823.16;4380129;32;20083;-73
2022/08/23 15:12:24;;;;;;;5.12;2.37;;;;;;;26.39;100.00;98811.87;4361877;32;20057;-88
2022/08/23 15:14:50;;;;;;;5.87;2.80;;;;;;;26.71;100.00;98820.06;4381961;32;20065;-72
2022/08/23 15:17:16;;;;;;;10.63;3.03;;;;;;;26.85;100.00;98829.78;4381842;32;20054;-73
2022/08/23 15:19:43;;;;;;;5.57;2.42;;;;;;;26.63;100.00;98787.91;4381139;32;20059;-73
2022/08/23 15:22:09;;;;;;;3.45;3.15;;;;;;;26.53;100.00;98816.09;4377280;32;20345;-73
2022/08/23 15:24:38;;;;;;;16.00;3.05;;;;;;;27.02;100.00;98850.66;4360635;32;20119;-77
2022/08/23 15:27:05;;;;;;;11.65;2.40;;;;;;;27.15;100.00;98847.34;4376235;32;20069;-72
2022/08/23 15:29:31;;;;;;;5.37;2.75;;;;;;;27.26;100.00;98852.31;4350228;33;20399;-73
2022/08/23 15:31:58;;;;;;;6.87;3.05;;;;;;;27.09;100.00;98823.97;4350232;33;20032;-72
2022/08/23 15:34:24;;;;;;;7.57;2.67;;;;;;;27.09;100.00;98848.84;4354315;32;20047;-73
2022/08/23 15:36:50;;;;;;;5.25;2.87;;;;;;;27.11;100.00;98857.56;4340306;32;20031;-73
2022/08/23 15:39:17;;;;;;;4.85;2.50;;;;;;;26.92;100.00;98863.09;4360826;32;20051;-70
2022/08/23 15:41:44;;;;;;;9.20;2.90;;;;;;;27.05;100.00;98870.06;4353072;33;20058;-71
2022/08/23 15:44:10;;;;;;;3.58;3.28;;;;;;;26.99;100.00;98866.00;4353803;32;20036;-71
2022/08/23 15:46:38;;;;;;;7.62;2.55;;;;;;;27.09;100.00;98870.94;4354931;32;20032;-70
2022/08/23 15:49:11;;;;;;;7.03;3.03;;;;;;;26.85;100.00;98871.22;4349821;32;20351;-70
2022/08/23 15:51:38;;;;;;;12.57;2.97;;;;;;;26.68;100.00;98851.16;4338260;33;20426;-70
2022/08/23 15:54:05;;;;;;;7.80;3.40;;;;;;;26.89;100.00;98872.09;4341524;33;20062;-71
2022/08/23 15:56:42;;;;;;;8.32;3.20;;;;;;;26.49;100.00;98870.41;4350371;32;20167;-79
2022/08/23 15:59:13;;;;;;;17.15;3.92;;;;;;;26.29;100.00;98895.19;4364970;32;20039;-72
2022/08/23 16:01:41;;;;;;;7.47;2.87;;;;;;;26.16;100.00;98893.72;4365394;32;20177;-72
2022/08/23 16:04:08;;;;;;;12.98;3.00;;;;;;;25.99;100.00;98898.44;4367024;32;20672;-71
2022/08/23 16:06:36;;;;;;;6.47;2.92;;;;;;;25.76;100.00;98895.47;4368547;32;20047;-77
2022/08/23 16:09:04;;;;;;;11.40;6.30;;;;;;;25.81;100.00;98897.16;4369118;32;20095;-73
2022/08/23 16:11:30;;;;;;;10.38;3.70;;;;;;;25.55;100.00;98874.44;4344985;32;20032;-73
2022/08/23 16:13:57;;;;;;;12.00;4.47;;;;;;;24.82;100.00;98792.94;4343638;32;20134;-73
2022/08/23 16:16:28;;;;;;;12.30;4.07;;;;;;;25.04;100.00;98865.16;4308860;33;20025;-74
2022/08/23 16:18:57;;;;;;;13.75;4.18;;;;;;;25.01;100.00;98900.50;4278876;33;20046;-73
2022/08/23 16:21:26;;;;;;;8.13;3.85;;;;;;;25.09;100.00;98900.72;4295351;33;20081;-74
2022/08/23 16:23:56;;;;;;;8.18;4.40;;;;;;;25.02;100.00;98898.56;4316352;33;20032;-73